EGHH/BOH METAR and TAF weather

Enter ICAO airport designator
Station Type Date Time Source
EGHH METAR 2020/01/17 21:20 UTC NOAA

EGHH 172120Z 26008KT CAVOK 03/01 Q1020


Station Type Date Time Source
EGHH Decoded METAR 2020/01/17 21:20 UTC NOAA

Bournemouth Airport, United Kingdom (EGHH) 50-47N 001-50W 0M
Jan 17, 2020 - 04:20 PM EST / 2020.01.17 2120 UTC
Wind: from the W (260 degrees) at 9 MPH (8 KT):0
Visibility: greater than 7 mile(s):0
Temperature: 37 F (3 C)
Dew Point: 33 F (1 C)
Relative Humidity: 86%
Pressure (altimeter): 30.12 in. Hg (1020 hPa)
ob: EGHH 172120Z 26008KT CAVOK 03/01 Q1020
cycle: 21

Station Type Date Time Source
EGHH TAF 2013/12/01 21:21 UTC NOAA

TAF TAF EGHH 010016Z 3021/0106 CNL

Example: see airport list